Time;durP1;ratioP1;P1;durP2;ratioP2;P2;SDS_P1;SDS_P2;PMS_P1;PMS_P2;Temp;Humidity;BMP_temperature;BMP_pressure;BME280_temperature;BME280_humidity;BME280_pressure;Samples;Min_cycle;Max_cycle;Signal;HPM_P1;HPM_P2
2023/01/14 01:30:30;;;;;;;38.50;21.10;;;;;;;-3.60;95.05;100064.58;103199;1299;558237;-61
2023/01/14 01:32:56;;;;;;;31.90;18.70;;;;;;;-3.46;94.78;100055.00;104595;1289;81252;-61
2023/01/14 01:35:23;;;;;;;37.60;20.70;;;;;;;-3.43;94.92;100053.92;104812;1282;22774;-60
2023/01/14 01:37:50;;;;;;;36.10;19.50;;;;;;;-3.43;94.82;100051.06;104628;1285;22785;-60
2023/01/14 01:40:18;;;;;;;36.00;20.40;;;;;;;-3.39;95.02;100051.56;104836;1287;22664;-60
2023/01/14 01:42:58;;;;;;;35.70;20.50;;;;;;;-3.37;94.96;100054.70;109267;1284;22357;-61
2023/01/14 01:45:32;;;;;;;38.50;19.50;;;;;;;-3.35;95.06;100051.66;109372;1282;22254;-61
2023/01/14 01:48:39;;;;;;;32.20;18.30;;;;;;;-3.35;94.85;100045.29;109365;1289;22811;-61
2023/01/14 01:51:09;;;;;;;33.10;18.20;;;;;;;-3.32;95.01;100044.58;108757;1296;22466;-61
2023/01/14 01:53:39;;;;;;;36.30;20.10;;;;;;;-3.32;94.85;100044.45;108560;1295;22428;-61
2023/01/14 01:56:06;;;;;;;30.70;16.30;;;;;;;-3.33;95.06;100042.59;108574;1288;22495;-61
2023/01/14 01:58:33;;;;;;;;;;;;;;;-3.33;94.99;100038.74;108669;1296;22439;-61
2023/01/14 02:01:00;;;;;;;26.40;15.60;;;;;;;-3.32;94.94;100041.40;108663;1294;22240;-61
2023/01/14 02:03:39;;;;;;;31.50;17.50;;;;;;;-3.32;94.90;100038.38;108628;1295;22281;-61
2023/01/14 02:06:07;;;;;;;31.80;15.60;;;;;;;-3.31;95.01;100038.34;108619;1290;22282;-61
2023/01/14 02:08:35;;;;;;;30.80;17.40;;;;;;;-3.31;94.96;100042.02;108757;1291;22397;-61
2023/01/14 02:11:31;;;;;;;31.70;16.50;;;;;;;-3.30;94.98;100039.76;108452;1294;139353;-61
2023/01/14 02:14:21;;;;;;;31.50;16.80;;;;;;;-3.28;95.04;100036.07;108287;1300;22254;-61
2023/01/14 02:16:58;;;;;;;31.00;16.00;;;;;;;-3.31;94.89;100035.85;108413;1300;22231;-61
2023/01/14 02:19:34;;;;;;;19.60;12.90;;;;;;;-3.34;94.92;100036.63;108252;1296;22149;-61
2023/01/14 02:22:25;;;;;;;26.70;16.00;;;;;;;-3.36;94.92;100031.88;108335;1296;22558;-61
2023/01/14 02:24:59;;;;;;;28.40;15.10;;;;;;;-3.36;94.99;100031.90;107789;1300;139024;-61
2023/01/14 02:27:41;;;;;;;29.40;17.20;;;;;;;-3.36;95.14;100034.40;108285;1290;23153;-61
2023/01/14 02:30:37;;;;;;;29.00;15.40;;;;;;;-3.36;95.31;100040.04;108678;1291;138099;-61
2023/01/14 02:33:17;;;;;;;29.10;15.40;;;;;;;-3.35;95.31;100043.34;108935;1293;22212;-61
2023/01/14 02:36:03;;;;;;;23.90;15.30;;;;;;;-3.34;95.37;100041.88;108828;1289;138229;-61
2023/01/14 02:38:36;;;;;;;30.80;16.30;;;;;;;-3.32;95.56;100038.05;108920;1294;23311;-61
2023/01/14 02:41:12;;;;;;;28.80;16.00;;;;;;;-3.30;95.60;100042.23;108857;1291;138127;-60
2023/01/14 02:46:33;;;;;;;25.10;13.40;;;;;;;-3.32;95.32;100050.71;108799;1288;22409;-60
2023/01/14 02:49:05;;;;;;;22.50;12.40;;;;;;;-3.38;95.25;100047.57;108771;1293;139999;-60
2023/01/14 02:51:32;;;;;;;21.50;12.40;;;;;;;-3.38;95.38;100049.04;108938;1293;22212;-60
2023/01/14 02:53:59;;;;;;;22.50;13.50;;;;;;;-3.41;95.43;100054.11;108700;1293;137987;-60
2023/01/14 02:56:26;;;;;;;21.10;12.40;;;;;;;-3.43;95.44;100054.11;108907;1294;22326;-60
2023/01/14 02:58:54;;;;;;;21.30;12.30;;;;;;;-3.45;95.42;100053.91;108797;1293;23170;-60
2023/01/14 03:01:44;;;;;;;18.50;11.60;;;;;;;-3.44;95.44;100056.70;109009;1292;22202;-60
2023/01/14 03:04:21;;;;;;;18.00;11.20;;;;;;;-3.47;95.53;100062.39;108989;1287;22291;-60
2023/01/14 03:07:01;;;;;;;18.60;11.00;;;;;;;-3.49;95.45;100063.84;108975;1292;138240;-60
2023/01/14 03:09:47;;;;;;;19.40;10.90;;;;;;;-3.53;95.51;100062.91;108996;1292;22205;-60
2023/01/14 03:12:18;;;;;;;21.00;11.90;;;;;;;-3.58;95.40;100072.08;108891;1287;139115;-60
2023/01/14 03:15:16;;;;;;;17.10;10.50;;;;;;;-3.60;95.52;100069.86;108809;1292;22235;-60
2023/01/14 03:18:11;;;;;;;17.60;11.40;;;;;;;-3.64;95.68;100065.80;108746;1293;138471;-60
2023/01/14 03:20:41;;;;;;;20.80;11.10;;;;;;;-3.65;95.70;100061.17;108530;1292;22264;-60
2023/01/14 03:23:10;;;;;;;17.60;10.80;;;;;;;-3.64;95.97;100067.02;108605;1296;138692;-60
2023/01/14 03:25:41;;;;;;;20.00;10.20;;;;;;;-3.61;95.93;100071.49;108646;1297;22214;-60
2023/01/14 03:28:18;;;;;;;18.70;12.00;;;;;;;-3.62;95.85;100072.33;108350;1295;23628;-60
2023/01/14 03:30:49;;;;;;;20.30;11.60;;;;;;;-3.64;95.97;100071.34;108493;1294;139305;-60
2023/01/14 03:33:24;;;;;;;20.50;12.10;;;;;;;-3.66;95.99;100066.40;108676;1294;22526;-60
2023/01/14 03:35:51;;;;;;;17.80;11.30;;;;;;;-3.68;95.97;100061.62;108525;1296;138294;-60
2023/01/14 03:38:39;;;;;;;17.70;10.30;;;;;;;-3.68;96.05;100062.52;108642;1297;22283;-60
2023/01/14 03:41:06;;;;;;;;;;;;;;;-3.65;96.32;100061.88;108524;1293;138489;-60
2023/01/14 03:43:46;;;;;;;12.00;7.00;;;;;;;-3.61;96.43;100064.14;108687;1297;23503;-60
2023/01/14 03:46:12;;;;;;;19.20;10.90;;;;;;;-3.59;96.35;100063.31;108714;1296;23097;-60
2023/01/14 03:48:39;;;;;;;18.10;10.50;;;;;;;-3.56;96.42;100066.94;108549;1297;139962;-60
2023/01/14 03:51:24;;;;;;;17.90;9.70;;;;;;;-3.56;96.51;100063.77;108632;1292;22225;-60
2023/01/14 03:54:12;;;;;;;19.70;12.70;;;;;;;-3.54;96.50;100065.05;108536;1296;138251;-60
2023/01/14 03:57:00;;;;;;;16.70;10.00;;;;;;;-3.53;96.50;100066.20;108822;1290;22331;-60
2023/01/14 03:59:28;;;;;;;;;;;;;;;-3.58;96.26;100067.98;109328;1289;139645;-60
2023/01/14 04:01:55;;;;;;;14.90;9.00;;;;;;;-3.62;96.27;100066.50;109355;1289;22315;-60
2023/01/14 04:04:22;;;;;;;;;;;;;;;-3.67;96.17;100067.71;109332;1283;22442;-60
2023/01/14 04:06:49;;;;;;;12.50;6.80;;;;;;;-3.70;96.35;100067.29;109176;1288;124429;-60
2023/01/14 04:09:16;;;;;;;17.70;10.00;;;;;;;-3.71;96.40;100067.05;109351;1289;22263;-60
2023/01/14 04:11:42;;;;;;;20.90;11.50;;;;;;;-3.72;96.48;100063.63;109272;1289;139010;-60
2023/01/14 04:16:54;;;;;;;22.30;10.60;;;;;;;-3.74;96.42;100070.38;109482;1289;22551;-60
2023/01/14 04:19:21;;;;;;;21.10;11.30;;;;;;;-3.78;96.34;100074.02;109216;1289;138484;-60
2023/01/14 04:21:48;;;;;;;21.90;10.70;;;;;;;-3.81;96.26;100074.98;109345;1284;22347;-60
2023/01/14 04:24:14;;;;;;;19.40;11.00;;;;;;;-3.81;96.36;100078.34;109255;1289;138337;-61
2023/01/14 04:26:41;;;;;;;18.10;10.50;;;;;;;-3.82;96.48;100080.30;109350;1288;23029;-60
2023/01/14 04:29:08;;;;;;;19.40;10.80;;;;;;;-3.84;96.45;100078.98;109226;1290;140539;-60
2023/01/14 04:31:34;;;;;;;18.70;11.30;;;;;;;-3.85;96.47;100076.27;109330;1285;22358;-60
2023/01/14 04:34:01;;;;;;;16.90;10.50;;;;;;;-3.86;96.46;100079.45;109372;1289;22268;-60
2023/01/14 04:36:28;;;;;;;22.70;12.30;;;;;;;-3.88;96.50;100079.23;109253;1289;140080;-60
2023/01/14 04:38:54;;;;;;;20.50;10.70;;;;;;;-3.90;96.42;100080.00;109342;1290;22337;-60
2023/01/14 04:44:06;;;;;;;18.70;10.70;;;;;;;-3.87;96.84;100084.82;109494;1282;22403;-62
2023/01/14 04:46:33;;;;;;;19.30;11.10;;;;;;;-3.87;96.96;100079.84;109375;1288;23325;-61
2023/01/14 04:49:00;;;;;;;24.60;11.90;;;;;;;-3.85;96.89;100083.52;109311;1289;139452;-62
2023/01/14 04:51:26;;;;;;;21.90;11.80;;;;;;;-3.84;96.96;100088.27;109383;1289;22206;-61
2023/01/14 04:53:54;;;;;;;19.00;11.10;;;;;;;-3.83;96.79;100088.55;109326;1289;138795;-62
2023/01/14 04:56:20;;;;;;;19.80;11.00;;;;;;;-3.85;96.90;100092.41;109329;1285;23590;-62
2023/01/14 04:58:47;;;;;;;21.50;12.60;;;;;;;-3.85;96.94;100092.86;109406;1290;22266;-62
2023/01/14 05:01:14;;;;;;;19.00;10.40;;;;;;;-3.87;96.81;100093.70;109241;1289;138701;-62
2023/01/14 05:03:41;;;;;;;;;;;;;;;-3.87;96.89;100095.89;109375;1288;22439;-62
2023/01/14 05:06:07;;;;;;;18.20;11.80;;;;;;;-3.90;96.92;100097.02;109259;1289;126348;-62
2023/01/14 05:08:34;;;;;;;23.80;12.00;;;;;;;-3.92;96.89;100091.16;109674;1279;23439;-62
2023/01/14 05:11:01;;;;;;;24.00;12.20;;;;;;;-3.90;97.03;100092.09;109615;1282;138540;-62
2023/01/14 05:13:28;;;;;;;23.80;13.00;;;;;;;-3.91;97.06;100096.08;109634;1279;22146;-61
2023/01/14 05:16:00;;;;;;;20.00;11.80;;;;;;;-3.91;97.11;100090.57;109694;1284;23262;-62
2023/01/14 05:18:27;;;;;;;21.30;11.60;;;;;;;-3.90;97.32;100093.30;109550;1285;140263;-62
2023/01/14 05:20:54;;;;;;;23.50;13.80;;;;;;;-3.90;97.19;100087.49;109686;1285;22192;-62
2023/01/14 05:23:20;;;;;;;24.70;11.90;;;;;;;-3.88;97.34;100088.84;109535;1285;138699;-62
2023/01/14 05:25:47;;;;;;;20.80;11.80;;;;;;;-3.86;97.44;100092.19;109680;1285;22173;-62
2023/01/14 05:28:15;;;;;;;23.50;12.30;;;;;;;-3.85;97.39;100097.20;109618;1286;22489;-62
2023/01/14 05:30:42;;;;;;;23.40;12.50;;;;;;;-3.83;97.43;100098.98;109598;1285;138711;-61
2023/01/14 05:33:09;;;;;;;25.20;13.00;;;;;;;-3.80;97.51;100103.25;109629;1285;22191;-61
2023/01/14 05:35:36;;;;;;;23.70;13.10;;;;;;;-3.76;97.61;100103.45;109532;1285;139648;-62
2023/01/14 05:38:03;;;;;;;18.50;11.00;;;;;;;-3.75;97.62;100105.85;109651;1282;22262;-62
2023/01/14 05:40:30;;;;;;;36.60;17.00;;;;;;;-3.75;97.54;100107.74;107100;1285;22555;-60
2023/01/14 05:45:49;;;;;;;32.40;16.50;;;;;;;-3.75;97.55;100103.88;105169;1285;24018;-61
2023/01/14 05:48:16;;;;;;;24.30;14.20;;;;;;;-3.73;97.62;100108.81;105107;1284;138613;-61
2023/01/14 05:50:43;;;;;;;26.20;13.70;;;;;;;-3.72;97.79;100110.30;109632;1285;22331;-61
2023/01/14 05:53:10;;;;;;;;;;;;;;;-3.72;97.80;100108.67;109703;1285;139662;-61
2023/01/14 05:55:37;;;;;;;22.10;11.90;;;;;;;-3.70;97.75;100112.98;109641;1281;22198;-62
2023/01/14 05:58:04;;;;;;;21.20;11.30;;;;;;;-3.69;97.82;100110.20;109776;1285;22425;-61
2023/01/14 06:06:23;;;;;;;17.10;10.30;;;;;;;-3.68;97.76;100115.38;109630;1285;140759;-61
2023/01/14 06:08:57;;;;;;;23.00;11.00;;;;;;;-3.70;97.67;100118.58;109662;1285;22340;-62
2023/01/14 06:11:25;;;;;;;21.70;12.00;;;;;;;-3.72;97.57;100120.38;109588;1285;138733;-62
2023/01/14 06:13:54;;;;;;;18.60;10.20;;;;;;;-3.73;97.51;100118.23;109641;1285;22874;-61
2023/01/14 06:16:21;;;;;;;21.50;11.20;;;;;;;-3.75;97.29;100123.45;109682;1286;23264;-61
2023/01/14 06:18:47;;;;;;;21.20;11.70;;;;;;;-3.76;97.58;100122.46;109580;1285;139983;-61
2023/01/14 06:21:16;;;;;;;21.10;12.00;;;;;;;-3.76;97.52;100116.43;109670;1285;22155;-61
2023/01/14 06:23:43;;;;;;;21.00;10.80;;;;;;;-3.75;97.45;100120.76;109558;1279;138704;-62
2023/01/14 06:26:15;;;;;;;19.40;11.80;;;;;;;-3.77;97.48;100119.65;109690;1273;22425;-62
2023/01/14 06:28:42;;;;;;;21.10;10.70;;;;;;;-3.78;97.43;100118.35;109628;1279;22310;-61
2023/01/14 06:31:16;;;;;;;18.10;10.50;;;;;;;-3.77;97.49;100123.25;109525;1286;138955;-62
2023/01/14 06:33:44;;;;;;;16.70;10.50;;;;;;;-3.77;97.52;100119.13;109668;1285;23553;-61
2023/01/14 06:36:11;;;;;;;19.80;10.90;;;;;;;-3.75;97.46;100123.05;109589;1285;138392;-61
2023/01/14 06:38:38;;;;;;;22.80;11.70;;;;;;;-3.75;97.39;100120.12;109666;1282;22198;-62
2023/01/14 06:41:06;;;;;;;23.80;12.50;;;;;;;-3.71;97.67;100121.05;105976;1285;138608;-61
2023/01/14 06:43:34;;;;;;;24.40;13.00;;;;;;;-3.69;97.64;100118.33;105189;1285;25181;-61
2023/01/14 06:46:01;;;;;;;23.00;12.00;;;;;;;-3.69;97.57;100118.02;105207;1286;22587;-62
2023/01/14 06:48:28;;;;;;;23.90;12.40;;;;;;;-3.68;97.71;100120.05;105042;1285;138507;-62
2023/01/14 06:50:55;;;;;;;25.70;13.10;;;;;;;-3.68;97.74;100121.56;109483;1285;22481;-62
2023/01/14 06:53:23;;;;;;;25.00;12.90;;;;;;;-3.66;97.84;100120.69;109569;1285;138393;-62
2023/01/14 06:55:49;;;;;;;26.20;14.10;;;;;;;-3.66;97.84;100118.05;109762;1280;22267;-62
2023/01/14 06:58:16;;;;;;;25.60;13.40;;;;;;;-3.66;97.73;100118.24;109691;1285;23010;-62
2023/01/14 07:00:43;;;;;;;26.90;13.70;;;;;;;-3.63;97.90;100123.10;109536;1286;138574;-62
2023/01/14 07:03:10;;;;;;;23.40;13.10;;;;;;;-3.61;97.95;100125.73;109611;1285;22914;-62
2023/01/14 07:05:38;;;;;;;20.90;11.20;;;;;;;-3.61;97.83;100125.60;109525;1280;140726;-62
2023/01/14 07:08:05;;;;;;;27.20;13.00;;;;;;;-3.58;97.96;100123.97;109732;1285;22164;-62
2023/01/14 07:10:31;;;;;;;22.10;12.60;;;;;;;-3.55;98.05;100120.30;109652;1285;22223;-62
2023/01/14 07:12:58;;;;;;;21.80;12.50;;;;;;;-3.51;98.08;100125.80;109516;1285;139551;-62
2023/01/14 07:15:25;;;;;;;22.00;11.40;;;;;;;-3.49;97.95;100128.66;109667;1286;22224;-62
2023/01/14 07:17:51;;;;;;;21.30;11.70;;;;;;;-3.49;97.89;100131.63;109575;1285;138922;-62
2023/01/14 07:20:18;;;;;;;21.10;11.80;;;;;;;-3.48;97.89;100133.16;109689;1279;22947;-62
2023/01/14 07:22:48;;;;;;;26.10;13.40;;;;;;;-3.48;97.78;100134.20;109889;1281;22348;-62
2023/01/14 07:25:15;;;;;;;25.00;13.90;;;;;;;-3.45;98.12;100136.54;109791;1277;139245;-62
2023/01/14 07:27:42;;;;;;;;;;;;;;;-3.43;97.91;100134.16;109910;1281;22544;-62
2023/01/14 07:30:09;;;;;;;23.10;12.60;;;;;;;-3.45;97.76;100133.10;109759;1277;126292;-62
2023/01/14 07:32:36;;;;;;;25.50;13.30;;;;;;;-3.44;97.89;100131.09;109897;1279;22359;-62
2023/01/14 07:35:04;;;;;;;31.60;14.50;;;;;;;-3.41;97.92;100134.04;109699;1279;138480;-62
2023/01/14 07:37:34;;;;;;;26.70;13.30;;;;;;;-3.39;98.12;100136.86;109758;1280;22247;-61
2023/01/14 07:40:04;;;;;;;25.40;13.50;;;;;;;-3.40;97.91;100139.72;109812;1282;22217;-62
2023/01/14 07:42:30;;;;;;;25.50;13.90;;;;;;;-3.39;97.90;100142.86;109720;1281;138504;-62
2023/01/14 07:44:57;;;;;;;28.50;13.00;;;;;;;-3.37;97.83;100140.05;109876;1281;22560;-62
2023/01/14 07:47:24;;;;;;;24.40;11.10;;;;;;;-3.36;97.94;100144.13;109740;1282;139648;-62
2023/01/14 07:49:50;;;;;;;24.00;12.70;;;;;;;-3.36;97.70;100146.23;109870;1280;23082;-62
2023/01/14 07:52:17;;;;;;;34.50;14.20;;;;;;;-3.39;97.68;100147.80;109820;1281;22195;-62
2023/01/14 07:54:44;;;;;;;21.60;12.70;;;;;;;-3.40;97.72;100147.72;109813;1281;140195;-62
2023/01/14 07:57:11;;;;;;;26.90;13.20;;;;;;;-3.38;97.79;100148.44;109871;1282;22301;-62
2023/01/14 07:59:38;;;;;;;26.60;12.60;;;;;;;-3.38;97.82;100143.10;109744;1281;138977;-62
2023/01/14 08:02:05;;;;;;;29.50;14.20;;;;;;;-3.34;97.82;100152.27;109882;1281;22356;-62
2023/01/14 08:04:32;;;;;;;27.70;13.20;;;;;;;-3.33;97.84;100150.55;109844;1275;22198;-62
2023/01/14 08:06:59;;;;;;;;;;;;;;;-3.31;97.83;100154.84;109739;1281;138971;-62
2023/01/14 08:09:26;;;;;;;19.70;9.20;;;;;;;-3.29;97.81;100156.58;109923;1273;22233;-62
2023/01/14 08:11:53;;;;;;;23.90;13.20;;;;;;;-3.29;97.83;100161.66;109649;1275;138749;-62
2023/01/14 08:14:20;;;;;;;33.60;18.00;;;;;;;-3.31;97.79;100163.14;109821;1279;22378;-62
2023/01/14 08:16:47;;;;;;;30.00;14.00;;;;;;;-3.32;97.75;100166.76;109849;1280;22354;-62
2023/01/14 08:19:16;;;;;;;30.30;15.50;;;;;;;-3.30;97.77;100167.88;109677;1279;139873;-59
2023/01/14 08:21:43;;;;;;;30.90;15.10;;;;;;;-3.29;97.91;100168.26;109814;1279;23277;-59
2023/01/14 08:24:10;;;;;;;34.40;16.60;;;;;;;-3.26;97.89;100170.84;109699;1276;138340;-59
2023/01/14 08:26:37;;;;;;;26.40;15.20;;;;;;;-3.24;97.91;100166.20;109884;1276;23724;-59
2023/01/14 08:29:04;;;;;;;29.40;14.80;;;;;;;-3.23;97.89;100166.95;109705;1276;138516;-60
2023/01/14 08:31:40;;;;;;;33.70;16.10;;;;;;;-3.21;97.91;100168.00;109862;1276;22159;-60
2023/01/14 08:34:07;;;;;;;35.40;16.80;;;;;;;-3.18;97.83;100167.59;109857;1281;22242;-60
2023/01/14 08:36:34;;;;;;;35.10;16.60;;;;;;;-3.14;98.15;100169.08;109776;1277;139197;-60
2023/01/14 08:39:01;;;;;;;;;;;;;;;-3.09;98.27;100170.77;109924;1281;23232;-60
2023/01/14 08:41:30;;;;;;;31.00;14.60;;;;;;;-3.07;98.00;100171.45;109726;1277;124998;-60
2023/01/14 08:43:57;;;;;;;27.20;13.70;;;;;;;-3.05;98.01;100175.36;109860;1280;22201;-60
2023/01/14 08:46:24;;;;;;;30.10;13.50;;;;;;;-3.04;98.12;100175.16;109799;1276;22887;-60
2023/01/14 08:48:50;;;;;;;27.40;12.90;;;;;;;-3.01;97.91;100168.88;109725;1276;139766;-60
2023/01/14 08:51:18;;;;;;;26.50;12.70;;;;;;;-3.02;98.02;100171.46;109870;1273;23145;-60
2023/01/14 08:53:44;;;;;;;29.50;13.80;;;;;;;-3.03;97.71;100169.02;109768;1276;139717;-60
2023/01/14 08:56:15;;;;;;;32.50;16.30;;;;;;;-3.02;97.93;100165.40;109839;1275;22207;-60
2023/01/14 08:58:42;;;;;;;36.60;15.50;;;;;;;-3.00;97.78;100165.21;109784;1276;22334;-60
2023/01/14 09:01:09;;;;;;;;;;;;;;;-2.99;97.87;100164.50;109739;1277;138514;-60
2023/01/14 09:03:37;;;;;;;37.10;16.50;;;;;;;-2.96;97.80;100158.70;109804;1275;22242;-60
2023/01/14 09:06:06;;;;;;;31.80;15.60;;;;;;;-2.96;97.66;100158.16;109780;1279;139714;-60
2023/01/14 09:17:04;;;;;;;26.40;13.20;;;;;;;-3.02;97.55;100148.52;109855;1281;22225;-60
2023/01/14 09:19:52;;;;;;;27.40;14.10;;;;;;;-2.97;97.54;100147.81;109884;1281;22208;-60
2023/01/14 09:22:20;;;;;;;28.10;14.10;;;;;;;-2.96;97.39;100145.02;109801;1281;22390;-61
2023/01/14 09:24:47;;;;;;;27.40;13.30;;;;;;;-2.94;97.64;100144.98;109745;1281;138384;-61
2023/01/14 09:27:14;;;;;;;;;;;;;;;-2.92;97.38;100145.00;109803;1276;22650;-61
2023/01/14 09:29:40;;;;;;;29.00;12.30;;;;;;;-2.91;97.50;100147.55;109747;1276;124527;-61
2023/01/14 09:32:11;;;;;;;27.60;13.30;;;;;;;-2.91;97.35;100147.15;109828;1276;22417;-60
2023/01/14 09:34:39;;;;;;;24.80;12.50;;;;;;;-2.88;97.47;100149.91;109804;1281;22183;-61
2023/01/14 09:37:06;;;;;;;27.80;13.40;;;;;;;-2.90;97.29;100151.95;109675;1281;139529;-60
2023/01/14 09:39:33;;;;;;;27.30;13.90;;;;;;;-2.90;97.15;100147.14;109832;1276;22331;-60
2023/01/14 09:42:01;;;;;;;29.10;15.70;;;;;;;-2.89;97.34;100144.83;109660;1281;139940;-60
2023/01/14 09:44:28;;;;;;;28.80;14.80;;;;;;;-2.87;97.21;100147.15;109782;1277;22476;-60
2023/01/14 09:46:54;;;;;;;30.40;16.20;;;;;;;-2.86;97.25;100149.83;109858;1281;22369;-60
2023/01/14 09:49:23;;;;;;;28.10;15.50;;;;;;;-2.85;97.25;100151.16;109701;1277;139310;-60
2023/01/14 09:52:02;;;;;;;28.40;13.80;;;;;;;-2.83;97.10;100149.08;109824;1281;22861;-60
2023/01/14 09:54:31;;;;;;;29.20;14.00;;;;;;;-2.81;97.17;100149.70;109731;1282;138604;-60
2023/01/14 09:57:17;;;;;;;28.50;14.70;;;;;;;-2.79;97.14;100146.52;109850;1281;23274;-60
2023/01/14 09:59:50;;;;;;;28.10;14.70;;;;;;;-2.78;97.17;100143.73;109813;1277;138519;-60
2023/01/14 10:02:19;;;;;;;30.60;15.90;;;;;;;-2.76;97.16;100139.60;109881;1275;22364;-60
2023/01/14 10:04:52;;;;;;;36.50;15.70;;;;;;;-2.73;97.06;100137.34;109878;1281;22449;-60
2023/01/14 10:07:19;;;;;;;30.30;15.50;;;;;;;-2.71;97.20;100132.38;109726;1281;139388;-60
2023/01/14 10:09:51;;;;;;;27.20;15.10;;;;;;;-2.69;96.98;100133.40;109805;1281;22418;-60
2023/01/14 10:12:22;;;;;;;29.50;14.70;;;;;;;-2.69;96.84;100136.17;109720;1274;138778;-60
2023/01/14 10:15:18;;;;;;;32.80;15.70;;;;;;;-2.66;97.01;100138.98;109796;1273;22213;-60
2023/01/14 10:17:51;;;;;;;30.70;15.40;;;;;;;-2.65;96.86;100139.02;109677;1275;138546;-60
2023/01/14 10:20:25;;;;;;;30.90;16.40;;;;;;;-2.63;96.81;100132.81;109846;1280;23274;-60
2023/01/14 10:23:11;;;;;;;32.60;16.00;;;;;;;-2.62;96.66;100132.63;109836;1277;23187;-60
2023/01/14 10:25:37;;;;;;;34.40;16.90;;;;;;;-2.62;96.68;100133.33;109737;1281;23013;-60
2023/01/14 10:28:04;;;;;;;31.70;15.70;;;;;;;-2.61;96.63;100132.77;109782;1277;22189;-60
2023/01/14 10:30:32;;;;;;;36.30;16.60;;;;;;;-2.60;96.59;100135.95;109728;1281;138412;-60
2023/01/14 10:33:02;;;;;;;34.90;16.50;;;;;;;-2.60;96.45;100137.20;109810;1281;23187;-60
2023/01/14 10:35:48;;;;;;;35.80;17.30;;;;;;;-2.60;96.64;100137.02;109745;1282;140425;-60
2023/01/14 10:38:17;;;;;;;34.60;14.90;;;;;;;-2.57;96.51;100133.86;109810;1276;22383;-60
2023/01/14 10:40:45;;;;;;;37.00;17.80;;;;;;;-2.56;96.50;100134.27;109926;1275;22392;-61
2023/01/14 10:43:19;;;;;;;37.20;17.70;;;;;;;-2.55;96.52;100134.55;109679;1277;138854;-61
2023/01/14 10:45:46;;;;;;;40.90;19.30;;;;;;;-2.55;96.50;100131.70;109871;1276;22188;-61
2023/01/14 10:48:16;;;;;;;;;;;;;;;-2.53;96.46;100134.86;109793;1281;138371;-61
2023/01/14 10:50:43;;;;;;;37.40;17.50;;;;;;;-2.52;96.37;100132.97;109798;1276;22810;-61
2023/01/14 10:53:19;;;;;;;36.40;17.00;;;;;;;-2.51;96.39;100130.90;109808;1275;22278;-61
2023/01/14 10:55:59;;;;;;;31.20;16.20;;;;;;;-2.47;96.74;100133.13;109822;1282;23294;-61
2023/01/14 10:58:29;;;;;;;38.00;17.30;;;;;;;-2.46;96.41;100129.46;109828;1281;22243;-61
2023/01/14 11:01:03;;;;;;;42.20;18.50;;;;;;;-2.45;96.37;100129.13;109619;1281;140083;-61
2023/01/14 11:03:32;;;;;;;38.60;18.80;;;;;;;-2.43;96.38;100129.83;109803;1281;22260;-61
2023/01/14 11:06:07;;;;;;;35.60;17.50;;;;;;;-2.43;96.24;100129.99;109678;1281;138567;-61
2023/01/14 11:08:50;;;;;;;47.00;23.60;;;;;;;-2.42;96.30;100127.23;109777;1281;23465;-61
2023/01/14 11:11:22;;;;;;;34.30;18.50;;;;;;;-2.40;96.21;100130.41;109718;1275;138803;-60
2023/01/14 11:13:50;;;;;;;34.30;18.10;;;;;;;-2.39;96.16;100124.92;109824;1282;22303;-61
2023/01/14 17:36:06;;;;;;;42.80;22.90;;;;;;;-2.60;100.00;100187.00;103353;1296;559337;-59
2023/01/14 17:38:34;;;;;;;42.00;22.10;;;;;;;-2.40;100.00;100189.05;109014;1288;96380;-60
2023/01/14 17:41:01;;;;;;;49.30;26.40;;;;;;;-2.35;100.00;100187.34;109153;1284;138207;-61
2023/01/14 17:43:29;;;;;;;47.70;23.40;;;;;;;-2.30;100.00;100190.20;109273;1287;22440;-60
2023/01/14 17:45:56;;;;;;;41.50;21.80;;;;;;;-2.27;100.00;100191.23;109085;1290;139185;-60
2023/01/14 17:48:23;;;;;;;;;;;;;;;-2.23;100.00;100190.61;109270;1288;22558;-60
2023/01/14 17:50:49;;;;;;;39.90;20.50;;;;;;;-2.20;100.00;100191.06;109188;1285;23360;-61
2023/01/14 17:53:16;;;;;;;43.60;23.50;;;;;;;-2.16;100.00;100193.61;108759;1287;138742;-59
2023/01/14 17:55:43;;;;;;;44.30;21.90;;;;;;;-2.11;100.00;100194.56;109114;1288;22231;-60
2023/01/14 17:58:10;;;;;;;;;;;;;;;-2.08;100.00;100184.80;109127;1286;138214;-60
2023/01/14 18:00:36;;;;;;;41.50;20.00;;;;;;;-2.06;100.00;100184.59;109234;1285;22384;-60
2023/01/14 18:03:03;;;;;;;45.20;22.50;;;;;;;-2.03;100.00;100189.30;109800;1276;22584;-60
2023/01/14 18:05:30;;;;;;;43.80;22.20;;;;;;;-2.01;100.00;100190.86;109551;1283;138729;-59
2023/01/14 18:07:57;;;;;;;42.70;22.00;;;;;;;-1.99;100.00;100191.40;109793;1278;22240;-60
2023/01/14 18:10:24;;;;;;;43.40;20.60;;;;;;;-1.99;100.00;100190.47;109759;1275;138748;-60
2023/01/14 18:12:51;;;;;;;43.70;24.10;;;;;;;-1.97;100.00;100194.52;109820;1283;22354;-61
2023/01/14 18:15:18;;;;;;;;;;;;;;;-1.94;100.00;100196.55;109847;1278;22465;-61
2023/01/14 18:17:45;;;;;;;39.30;18.60;;;;;;;-1.92;100.00;100200.93;109757;1276;124451;-61
2023/01/14 18:20:12;;;;;;;38.30;18.70;;;;;;;-1.91;100.00;100197.93;109799;1277;22196;-61
2023/01/14 18:22:39;;;;;;;41.50;19.00;;;;;;;-1.89;100.00;100202.21;109656;1276;138263;-60
2023/01/14 18:25:06;;;;;;;;;;;;;;;-1.89;100.00;100199.50;109859;1278;22614;-62
2023/01/14 18:27:33;;;;;;;35.70;18.10;;;;;;;-1.86;100.00;100201.84;109752;1276;22372;-61
2023/01/14 18:30:00;;;;;;;39.10;20.10;;;;;;;-1.83;100.00;100203.89;109361;1284;138266;-61
2023/01/14 18:32:26;;;;;;;;;;;;;;;-1.82;100.00;100196.78;109718;1278;22419;-61
2023/01/14 18:34:56;;;;;;;36.30;18.80;;;;;;;-1.81;100.00;100198.15;109619;1278;124289;-62
2023/01/14 18:37:24;;;;;;;52.20;26.40;;;;;;;-1.82;100.00;100199.09;109730;1276;22245;-63
2023/01/14 18:39:53;;;;;;;69.30;32.50;;;;;;;-1.81;100.00;100198.13;109696;1278;139272;-60
2023/01/14 18:42:20;;;;;;;39.40;22.40;;;;;;;-1.81;100.00;100193.55;109809;1276;22270;-60
2023/01/14 18:44:47;;;;;;;80.40;43.60;;;;;;;-1.82;100.00;100187.00;109767;1278;22270;-60
2023/01/14 18:47:14;;;;;;;71.10;37.80;;;;;;;-1.80;100.00;100187.01;109639;1278;139917;-60
2023/01/14 18:49:42;;;;;;;65.30;32.30;;;;;;;-1.81;100.00;100178.73;109773;1278;23406;-60
2023/01/14 18:52:10;;;;;;;52.70;26.90;;;;;;;-1.80;100.00;100183.55;109667;1281;138717;-60
2023/01/14 18:54:37;;;;;;;46.30;22.10;;;;;;;-1.80;100.00;100186.98;109794;1281;22218;-60
2023/01/14 18:57:04;;;;;;;;;;;;;;;-1.80;100.00;100188.72;109693;1280;22486;-60
2023/01/14 18:59:30;;;;;;;47.10;22.30;;;;;;;-1.79;100.00;100183.02;109697;1279;126016;-61
2023/01/14 19:02:00;;;;;;;42.50;21.60;;;;;;;-1.75;100.00;100186.54;109858;1283;22182;-60
2023/01/14 19:04:27;;;;;;;61.40;30.70;;;;;;;-1.72;100.00;100181.95;109601;1282;138427;-61
2023/01/14 19:06:55;;;;;;;62.10;32.60;;;;;;;-1.71;100.00;100184.48;109785;1279;22396;-60
2023/01/14 19:09:21;;;;;;;;;;;;;;;-1.70;100.00;100184.73;109836;1276;23183;-60
2023/01/14 19:12:01;;;;;;;52.90;26.30;;;;;;;-1.71;100.00;100181.28;109675;1278;124254;-60
2023/01/14 19:14:29;;;;;;;40.10;21.00;;;;;;;-1.73;100.00;100180.22;109756;1277;22322;-61
2023/01/14 19:16:56;;;;;;;36.70;19.40;;;;;;;-1.74;100.00;100182.48;109639;1277;138790;-60
2023/01/14 19:19:28;;;;;;;;;;;;;;;-1.77;100.00;100183.13;109824;1281;22468;-61
2023/01/14 19:21:55;;;;;;;33.20;17.40;;;;;;;-1.75;100.00;100184.92;109461;1276;125774;-59
2023/01/14 19:24:22;;;;;;;;;;;;;;;-1.76;100.00;100185.96;109815;1278;23043;-60
2023/01/14 19:26:49;;;;;;;32.70;17.30;;;;;;;-1.77;100.00;100184.96;109791;1279;23081;-60
2023/01/14 19:29:17;;;;;;;34.10;18.60;;;;;;;-1.77;100.00;100184.61;108928;1282;138620;-60
2023/01/14 19:31:45;;;;;;;;;;;;;;;-1.79;100.00;100179.94;105582;1278;23915;-60